Latest Coastal Weather Observations for Cape Nelson

IDS60701

Issued at 3:25 am CST Monday 21 April 2014 (issued every 10 minutes, with the page automatically refreshed every 10 minutes)

About coastal observations | Map of coastal stations | Coastal observations for SA | Marine services | Other Formats
Station Details ID: 090184 Name: CAPE NELSON LIGHTHOUSE Lat: -38.43 Lon: 141.54 Height: 45.4 m
Data from the previous 72 hours. | See also: Recent months at Cape Nelson
Date/Time
CST
Temp

°C
Wind Pressure Rain
since 9am
mm
Weather Cloud Vis
km
Sea
Height
m
Swell
Dir
 
Speed
knots
Gust
knots
hPa Trend Height
m
Period
s
Dir
21/03:00am 12.9 N 7 9 1015.2 - 8.6 - - - - - - -
21/02:30am 13.1 N 5 7 1015.5 - 8.6 - - - - - - -
21/02:00am 13.5 NNE 4 5 1015.6 - 8.6 - - - - - - -
21/01:30am 13.7 NNE 4 5 1015.9 - 8.6 - - - - - - -
21/01:00am 13.9 CALM 0 0 1016.2 - 8.6 - - - - - - -
21/12:30am 14.0 E 4 5 1016.2 - 8.6 - - - - - - -
21/12:00am 14.1 SE 6 8 1016.3 - 8.4 - - - - - - -
 
Date/Time
CST
Temp

°C
Wind Pressure Rain
since 9am
mm
Weather Cloud Vis
km
Sea
Height
m
Swell
Dir
 
Speed
knots
Gust
knots
hPa Trend Height
m
Period
s
Dir
20/11:30pm 14.2 SE 5 8 1016.3 - 7.4 - - - - - - -
20/11:00pm 14.5 NNE 2 5 1016.2 - 4.6 - - - - - - -
20/10:30pm 14.4 W 2 5 1016.6 - 4.6 - - - - - - -
20/10:00pm 14.5 CALM 0 0 1016.7 - 4.4 - - - - - - -
20/09:30pm 14.5 W 3 4 1016.7 - 4.2 - - - - - - -
20/09:00pm 14.7 W 8 10 1016.6 - 4.0 - - - - - - -
20/08:30pm 14.7 NW 9 12 1016.3 - 3.2 - - - - - - -
20/08:00pm 14.8 WNW 11 16 1016.4 - 0.4 - - - - - - -
20/07:30pm 14.7 NW 10 16 1016.2 - 0.4 - - - - - - -
20/07:00pm 15.0 NW 14 19 1016.0 - 0.4 - - - - - - -
20/06:30pm 15.9 WNW 15 22 1015.8 - 0.4 - - - - - - -
20/06:00pm 16.0 NW 10 14 1015.5 - 0.4 - - - - - - -
20/05:30pm 16.3 NW 10 14 1015.4 - 0.4 - - - - - - -
20/05:00pm 16.4 WNW 10 12 1015.2 - 0.4 - - - - - - -
20/04:30pm 16.5 WNW 13 18 1014.9 - 0.4 - - - - - - -
20/04:00pm 16.9 WNW 11 16 1014.9 - 0.4 - - - - - - -
20/03:30pm 17.3 NW 12 17 1015.0 - 0.4 - - - - - - -
20/03:00pm 17.3 WNW 11 14 1015.0 - 0.4 - - - - - - -
20/02:30pm 18.0 NW 12 19 1014.9 - 0.4 - - - - - - -
20/02:00pm 17.1 NW 15 20 1015.0 - 0.4 - - - - - - -
20/01:30pm 15.3 NW 14 20 1015.1 - 0.4 - - - - - - -
20/01:00pm 14.9 NW 14 22 1015.3 - 0.4 - - - - - - -
20/12:31pm 17.1 NW 16 26 1015.4 - 0.0 - - - - - - -
20/12:30pm 17.3 NW 16 25 1015.4 - 0.0 - - - - - - -
20/12:00pm 18.4 NW 18 24 1015.6 - 0.0 - - - - - - -
20/11:30am 18.0 NW 15 22 1015.9 - 0.0 - - - - - - -
20/11:00am 17.5 NW 15 23 1016.2 - 0.0 - - - - - - -
20/10:30am 16.8 NW 16 20 1016.3 - 0.0 - - - - - - -
20/10:00am 16.2 NW 14 19 1016.4 - 0.0 - - - - - - -
20/09:30am 15.5 NNW 14 20 1016.5 - 0.0 - - - - - - -
20/09:00am 15.0 NW 16 22 1016.5 - 0.0 - - - - - - -
20/08:30am 14.6 NNW 13 21 1016.4 - 0.4 - - - - - - -
20/08:00am 12.9 NNW 9 16 1016.4 - 0.4 - - - - - - -
20/07:30am 12.0 NNW 9 12 1016.3 - 0.4 - - - - - - -
20/07:00am 11.5 NNW 9 12 1016.1 - 0.4 - - - - - - -
20/06:30am 11.3 NNW 9 12 1016.0 - 0.4 - - - - - - -
20/06:00am 10.8 NNW 9 12 1015.9 - 0.4 - - - - - - -
20/05:30am 10.7 N 9 12 1015.8 - 0.4 - - - - - - -
20/05:00am 11.1 NNW 7 9 1015.8 - 0.4 - - - - - - -
20/04:30am 11.6 NW 5 9 1015.8 - 0.4 - - - - - - -
20/04:00am 11.2 NNW 9 12 1015.6 - 0.4 - - - - - - -
20/03:30am 11.2 NNW 12 17 1015.6 - 0.4 - - - - - - -
20/03:00am 10.4 N 8 13 1015.7 - 0.4 - - - - - - -
20/02:30am 10.4 N 7 9 1015.9 - 0.4 - - - - - - -
20/02:00am 10.4 N 7 10 1016.2 - 0.4 - - - - - - -
20/01:30am 10.2 NNW 8 10 1016.5 - 0.4 - - - - - - -
20/01:00am 9.9 N 9 11 1016.5 - 0.4 - - - - - - -
20/12:30am 10.5 N 9 11 1016.5 - 0.4 - - - - - - -
20/12:00am 10.8 N 8 12 1016.7 - 0.4 - - - - - - -
 
Date/Time
CST
Temp

°C
Wind Pressure Rain
since 9am
mm
Weather Cloud Vis
km
Sea
Height
m
Swell
Dir
 
Speed
knots
Gust
knots
hPa Trend Height
m
Period
s
Dir
19/11:30pm 11.0 NNW 10 14 1017.2 - 0.4 - - - - - - -
19/11:00pm 10.6 NNW 8 11 1017.4 - 0.4 - - - - - - -
19/10:30pm 10.5 NNW 6 8 1017.8 - 0.4 - - - - - - -
19/10:00pm 10.8 N 5 6 1017.9 - 0.4 - - - - - - -
19/09:30pm 11.0 N 4 6 1018.3 - 0.2 - - - - - - -
19/09:00pm 10.6 NNW 6 8 1018.4 - 0.0 - - - - - - -
19/08:30pm 10.6 N 5 6 1018.4 - 0.0 - - - - - - -
19/08:00pm 10.8 N 5 6 1018.4 - 0.0 - - - - - - -
19/07:30pm 11.3 N 5 6 1018.7 - 0.0 - - - - - - -
19/07:00pm 11.5 N 5 6 1018.8 - 0.0 - - - - - - -
19/06:30pm 11.6 N 3 4 1018.8 - 0.0 - - - - - - -
19/06:00pm 11.9 NW 3 4 1018.7 - 0.0 - - - - - - -
19/05:30pm 12.4 NW 4 6 1018.7 - 0.0 - - - - - - -
19/05:00pm 12.9 WNW 3 7 1018.7 - 0.0 - - - - - - -
19/04:30pm 13.2 W 6 10 1018.8 - 0.0 - - - - - - -
19/04:00pm 13.4 W 6 10 1018.9 - 0.0 - - - - - - -
19/03:30pm 13.6 W 5 8 1019.1 - 0.0 - - - - - - -
19/03:00pm 13.9 WNW 5 7 1019.2 - 0.0 - - - - - - -
19/02:30pm 13.5 W 6 10 1019.4 - 0.0 - - - - - - -
19/02:00pm 13.1 W 9 16 1019.5 - 0.0 - - - - - - -
19/01:30pm 14.0 W 8 11 1019.7 - 0.0 - - - - - - -
19/01:00pm 14.6 W 6 10 1020.1 - 0.0 - - - - - - -
19/12:30pm 14.2 W 7 10 1020.5 - 0.0 - - - - - - -
19/12:00pm 14.7 WNW 5 8 1020.9 - 0.0 - - - - - - -
19/11:30am 16.3 NE 5 9 1021.2 - 0.0 - - - - - - -
19/11:00am 14.7 W 5 9 1021.4 - 0.0 - - - - - - -
19/10:30am 14.8 N 5 10 1021.6 - 0.0 - - - - - - -
19/10:00am 14.9 NNW 5 9 1021.6 - 0.0 - - - - - - -
19/09:30am 14.4 SSE 5 9 1021.8 - 0.0 - - - - - - -
19/09:00am 13.3 S 6 11 1022.0 - 0.0 - - - - - - -
19/08:30am 13.0 SSE 7 10 1021.9 - 0.2 - - - - - - -
19/08:00am 13.4 NE 5 8 1021.6 - 0.2 - - - - - - -
19/07:30am 13.0 SE 5 10 1021.5 - 0.2 - - - - - - -
19/07:00am 13.0 N 5 9 1021.1 - 0.2 - - - - - - -
19/06:30am 12.8 W 9 14 1021.0 - 0.2 - - - - - - -
19/06:00am 12.7 W 11 14 1020.9 - 0.2 - - - - - - -
19/05:30am 12.4 S 9 12 1020.8 - 0.2 - - - - - - -
19/05:00am 12.3 S 12 16 1020.7 - 0.2 - - - - - - -
19/04:30am 12.1 W 6 9 1020.7 - 0.2 - - - - - - -
19/04:00am 12.1 W 7 14 1020.6 - 0.2 - - - - - - -
19/03:30am 12.8 S 10 13 1020.6 - 0.2 - - - - - - -
19/03:00am 12.7 S 8 15 1020.7 - 0.2 - - - - - - -
19/02:30am 12.7 S 11 16 1020.9 - 0.2 - - - - - - -
19/02:00am 12.7 S 14 21 1021.0 - 0.2 - - - - - - -
19/01:30am 12.7 S 17 23 1021.2 - 0.2 - - - - - - -
19/01:00am 13.3 S 12 18 1021.2 - 0.2 - - - - - - -
19/12:30am 13.7 S 10 15 1021.3 - 0.2 - - - - - - -
19/12:00am 13.6 S 12 16 1021.4 - 0.2 - - - - - - -
 
Date/Time
CST
Temp

°C
Wind Pressure Rain
since 9am
mm
Weather Cloud Vis
km
Sea
Height
m
Swell
Dir
 
Speed
knots
Gust
knots
hPa Trend Height
m
Period
s
Dir
18/11:30pm 13.6 S 10 17 1021.5 - 0.2 - - - - - - -
18/11:00pm 13.8 S 14 22 1021.5 - 0.2 - - - - - - -
18/10:30pm 14.1 S 9 17 1021.4 - 0.2 - - - - - - -
18/10:00pm 14.0 S 10 17 1021.7 - 0.2 - - - - - - -
18/09:30pm 12.9 NE 7 12 1021.7 - 0.2 - - - - - - -
18/09:00pm 14.1 S 11 19 1021.6 - 0.2 - - - - - - -
18/08:30pm 14.2 S 10 18 1021.4 - 0.2 - - - - - - -
18/08:00pm 13.9 NE 7 11 1021.2 - 0.2 - - - - - - -
18/07:30pm 13.8 S 10 17 1021.0 - 0.2 - - - - - - -
18/07:00pm 14.0 SSE 8 15 1020.9 - 0.2 - - - - - - -
18/06:30pm 13.3 S 13 18 1021.1 - 0.2 - - - - - - -
18/06:00pm 13.7 NE 11 21 1020.5 - 0.2 - - - - - - -
18/05:30pm 13.9 ENE 9 15 1020.4 - 0.2 - - - - - - -
18/05:00pm 14.1 S 11 19 1020.4 - 0.2 - - - - - - -
18/04:30pm 14.4 SSE 9 15 1020.1 - 0.2 - - - - - - -
18/04:00pm 14.4 S 12 19 1019.9 - 0.2 - - - - - - -
18/03:30pm 15.3 NNE 11 15 1019.6 - 0.2 - - - - - - -
18/03:00pm 15.9 NNE 10 17 1019.5 - 0.2 - - - - - - -
18/02:30pm 15.9 ENE 10 21 1019.4 - 0.2 - - - - - - -
18/02:00pm 15.8 NE 11 17 1019.3 - 0.2 - - - - - - -
18/01:30pm 15.8 N 11 18 1019.3 - 0.2 - - - - - - -
18/01:00pm 16.3 NE 11 19 1019.0 - 0.2 - - - - - - -
18/12:30pm 15.6 N 10 16 1018.9 - 0.2 - - - - - - -
18/12:00pm 15.7 NE 10 15 1018.9 - 0.2 - - - - - - -
18/11:30am 16.1 NE 10 16 1018.9 - 0.0 - - - - - - -
18/11:00am 15.8 NNW 10 17 1018.7 - 0.0 - - - - - - -
18/10:30am 15.2 ESE 10 17 1018.5 - 0.0 - - - - - - -
18/10:00am 15.5 E 12 23 1018.1 - 0.0 - - - - - - -
18/09:30am 15.0 E 9 18 1018.1 - 0.0 - - - - - - -
18/09:00am 15.3 SSE 10 19 1017.8 - 0.0 - - - - - - -
18/08:30am 14.7 S 12 24 1017.6 - 6.0 - - - - - - -
18/08:00am 14.7 S 11 19 1017.2 - 6.0 - - - - - - -
18/07:30am 14.4 SSE 12 21 1016.6 - 6.0 - - - - - - -
18/07:00am 13.7 ENE 10 17 1015.9 - 6.0 - - - - - - -
18/06:30am 13.0 NE 12 23 1015.0 - 6.0 - - - - - - -
18/06:00am 13.3 NE 12 21 1014.5 - 5.6 - - - - - - -
18/05:30am 12.5 NE 15 27 1013.9 - 5.2 - - - - - - -
18/05:00am 14.7 NW 17 29 1013.8 - 1.4 - - - - - - -
18/04:57am 14.7 NW 16 29 1013.8 - 1.4 - - - - - - -
18/04:30am 14.4 NW 18 23 1013.6 - 1.2 - - - - - - -
18/04:00am 14.2 NW 17 25 1013.6 - 1.2 - - - - - - -
18/03:30am 13.7 NNW 13 20 1013.5 - 1.2 - - - - - - -
18/03:00am 13.4 NNW 13 19 1014.0 - 1.2 - - - - - - -

Other Formats:

Comma delimited format used in spreadsheet applications
http://www.bom.gov.au/fwo/IDS60701/IDS60701.94826.axf

JavaScript Object Notation format (JSON) in row-major order
http://www.bom.gov.au/fwo/IDS60701/IDS60701.94826.json